sensor_id;sensor_type;location;lat;lon;timestamp;pressure;altitude;pressure_sealevel;temperature;humidity
19236;BME280;9752;54.270;12.470;2023-02-16T00:04:51;102729.97;;;1.24;100.00
19236;BME280;9752;54.270;12.470;2023-02-16T00:09:54;102727.09;;;1.28;100.00
19236;BME280;9752;54.270;12.470;2023-02-16T00:14:57;102709.53;;;1.24;100.00
19236;BME280;9752;54.270;12.470;2023-02-16T00:19:58;102719.34;;;1.21;100.00
19236;BME280;9752;54.270;12.470;2023-02-16T00:25:02;102716.34;;;1.10;100.00
19236;BME280;9752;54.270;12.470;2023-02-16T00:30:13;102713.72;;;1.03;100.00
19236;BME280;9752;54.270;12.470;2023-02-16T00:35:16;102701.09;;;0.85;100.00
19236;BME280;9752;54.270;12.470;2023-02-16T00:40:20;102711.56;;;0.73;100.00
19236;BME280;9752;54.270;12.470;2023-02-16T00:45:22;102710.59;;;0.53;100.00
19236;BME280;9752;54.270;12.470;2023-02-16T00:50:27;102692.06;;;0.28;100.00
19236;BME280;9752;54.270;12.470;2023-02-16T00:55:32;102674.16;;;0.08;100.00
19236;BME280;9752;54.270;12.470;2023-02-16T01:00:36;102680.06;;;0.02;100.00
19236;BME280;9752;54.270;12.470;2023-02-16T01:05:38;102668.41;;;0.04;100.00
19236;BME280;9752;54.270;12.470;2023-02-16T01:10:41;102665.78;;;-0.04;100.00
19236;BME280;9752;54.270;12.470;2023-02-16T01:16:01;102677.91;;;-0.21;100.00
19236;BME280;9752;54.270;12.470;2023-02-16T01:21:03;102683.53;;;-0.24;100.00
19236;BME280;9752;54.270;12.470;2023-02-16T01:26:12;102687.00;;;-0.23;100.00
19236;BME280;9752;54.270;12.470;2023-02-16T01:31:15;102679.66;;;-0.27;100.00
19236;BME280;9752;54.270;12.470;2023-02-16T01:36:21;102679.44;;;-0.29;100.00
19236;BME280;9752;54.270;12.470;2023-02-16T01:41:47;102678.66;;;-0.22;100.00
19236;BME280;9752;54.270;12.470;2023-02-16T01:46:54;102691.78;;;-0.19;100.00
19236;BME280;9752;54.270;12.470;2023-02-16T01:52:02;102690.66;;;-0.21;100.00
19236;BME280;9752;54.270;12.470;2023-02-16T01:57:19;102683.84;;;-0.15;100.00
19236;BME280;9752;54.270;12.470;2023-02-16T02:02:26;102679.88;;;-0.13;100.00
19236;BME280;9752;54.270;12.470;2023-02-16T02:07:34;102678.03;;;-0.14;100.00
19236;BME280;9752;54.270;12.470;2023-02-16T02:12:46;102676.00;;;-0.16;100.00
19236;BME280;9752;54.270;12.470;2023-02-16T02:17:50;102670.25;;;-0.21;100.00
19236;BME280;9752;54.270;12.470;2023-02-16T02:23:17;102663.34;;;-0.22;100.00
19236;BME280;9752;54.270;12.470;2023-02-16T02:28:46;102634.56;;;-0.21;100.00
19236;BME280;9752;54.270;12.470;2023-02-16T02:34:00;102630.19;;;-0.22;100.00
19236;BME280;9752;54.270;12.470;2023-02-16T02:39:16;102630.91;;;-0.23;100.00
19236;BME280;9752;54.270;12.470;2023-02-16T02:44:25;102634.06;;;-0.18;100.00
19236;BME280;9752;54.270;12.470;2023-02-16T02:49:29;102627.22;;;-0.25;100.00
19236;BME280;9752;54.270;12.470;2023-02-16T02:54:33;102633.38;;;-0.30;100.00
19236;BME280;9752;54.270;12.470;2023-02-16T02:59:59;102630.50;;;-0.26;100.00
19236;BME280;9752;54.270;12.470;2023-02-16T03:05:21;102627.97;;;-0.26;100.00
19236;BME280;9752;54.270;12.470;2023-02-16T03:10:25;102636.03;;;-0.36;100.00
19236;BME280;9752;54.270;12.470;2023-02-16T03:15:47;102637.53;;;-0.31;100.00
19236;BME280;9752;54.270;12.470;2023-02-16T03:20:50;102645.28;;;-0.36;100.00
19236;BME280;9752;54.270;12.470;2023-02-16T03:26:09;102642.63;;;-0.56;100.00
19236;BME280;9752;54.270;12.470;2023-02-16T03:31:33;102646.38;;;-0.73;100.00
19236;BME280;9752;54.270;12.470;2023-02-16T03:36:41;102635.03;;;-0.88;100.00
19236;BME280;9752;54.270;12.470;2023-02-16T03:41:45;102633.22;;;-0.89;100.00
19236;BME280;9752;54.270;12.470;2023-02-16T03:46:50;102644.13;;;-0.77;100.00
19236;BME280;9752;54.270;12.470;2023-02-16T03:51:52;102646.38;;;-0.73;100.00
19236;BME280;9752;54.270;12.470;2023-02-16T03:56:54;102657.09;;;-0.75;100.00
19236;BME280;9752;54.270;12.470;2023-02-16T04:01:57;102647.81;;;-0.75;100.00
19236;BME280;9752;54.270;12.470;2023-02-16T04:06:59;102637.22;;;-0.65;100.00
19236;BME280;9752;54.270;12.470;2023-02-16T04:12:01;102645.78;;;-0.52;100.00
19236;BME280;9752;54.270;12.470;2023-02-16T04:17:21;102652.94;;;-0.49;100.00
19236;BME280;9752;54.270;12.470;2023-02-16T04:22:23;102633.78;;;-0.53;100.00
19236;BME280;9752;54.270;12.470;2023-02-16T04:27:25;102637.94;;;-0.53;100.00
19236;BME280;9752;54.270;12.470;2023-02-16T04:32:28;102636.41;;;-0.58;100.00
19236;BME280;9752;54.270;12.470;2023-02-16T04:37:29;102635.28;;;-0.48;100.00
19236;BME280;9752;54.270;12.470;2023-02-16T04:42:31;102641.00;;;-0.43;100.00
19236;BME280;9752;54.270;12.470;2023-02-16T04:47:34;102630.09;;;-0.55;100.00
19236;BME280;9752;54.270;12.470;2023-02-16T04:52:36;102620.91;;;-0.60;100.00
19236;BME280;9752;54.270;12.470;2023-02-16T04:57:38;102615.94;;;-0.53;100.00
19236;BME280;9752;54.270;12.470;2023-02-16T05:02:41;102607.66;;;-0.57;100.00
19236;BME280;9752;54.270;12.470;2023-02-16T05:07:43;102605.00;;;-0.52;100.00
19236;BME280;9752;54.270;12.470;2023-02-16T05:12:45;102596.44;;;-0.65;100.00
19236;BME280;9752;54.270;12.470;2023-02-16T05:18:05;102603.88;;;-0.54;100.00
19236;BME280;9752;54.270;12.470;2023-02-16T05:23:07;102605.22;;;-0.50;100.00
19236;BME280;9752;54.270;12.470;2023-02-16T05:28:09;102593.06;;;-0.46;100.00
19236;BME280;9752;54.270;12.470;2023-02-16T05:33:12;102591.78;;;-0.49;100.00
19236;BME280;9752;54.270;12.470;2023-02-16T05:38:14;102588.50;;;-0.35;100.00
19236;BME280;9752;54.270;12.470;2023-02-16T05:43:15;102603.25;;;-0.20;100.00
19236;BME280;9752;54.270;12.470;2023-02-16T05:48:19;102600.91;;;-0.18;100.00
19236;BME280;9752;54.270;12.470;2023-02-16T05:53:21;102609.06;;;-0.21;100.00
19236;BME280;9752;54.270;12.470;2023-02-16T05:58:23;102606.03;;;-0.31;100.00
19236;BME280;9752;54.270;12.470;2023-02-16T06:03:26;102603.69;;;-0.43;100.00
19236;BME280;9752;54.270;12.470;2023-02-16T06:08:28;102597.34;;;-0.52;100.00
19236;BME280;9752;54.270;12.470;2023-02-16T06:13:30;102604.63;;;-0.55;100.00
19236;BME280;9752;54.270;12.470;2023-02-16T06:18:33;102604.59;;;-0.42;100.00
19236;BME280;9752;54.270;12.470;2023-02-16T06:23:35;102606.22;;;-0.43;100.00
19236;BME280;9752;54.270;12.470;2023-02-16T06:28:37;102618.06;;;-0.43;100.00
19236;BME280;9752;54.270;12.470;2023-02-16T06:33:40;102621.31;;;-0.57;100.00
19236;BME280;9752;54.270;12.470;2023-02-16T06:38:42;102625.19;;;-0.53;100.00
19236;BME280;9752;54.270;12.470;2023-02-16T06:43:44;102638.03;;;-0.46;100.00
19236;BME280;9752;54.270;12.470;2023-02-16T06:48:47;102629.47;;;-0.47;100.00
19236;BME280;9752;54.270;12.470;2023-02-16T06:53:49;102625.28;;;-0.46;100.00
19236;BME280;9752;54.270;12.470;2023-02-16T06:58:51;102609.00;;;-0.41;100.00
19236;BME280;9752;54.270;12.470;2023-02-16T07:03:55;102608.03;;;-0.16;100.00
19236;BME280;9752;54.270;12.470;2023-02-16T07:08:58;102624.75;;;0.08;100.00
19236;BME280;9752;54.270;12.470;2023-02-16T07:14:00;102633.53;;;0.10;100.00
19236;BME280;9752;54.270;12.470;2023-02-16T07:19:03;102635.34;;;0.11;100.00
19236;BME280;9752;54.270;12.470;2023-02-16T07:24:06;102626.66;;;0.16;100.00
19236;BME280;9752;54.270;12.470;2023-02-16T07:29:08;102630.66;;;0.47;100.00
19236;BME280;9752;54.270;12.470;2023-02-16T07:34:11;102634.63;;;0.57;100.00
19236;BME280;9752;54.270;12.470;2023-02-16T07:39:13;102634.88;;;0.66;100.00
19236;BME280;9752;54.270;12.470;2023-02-16T07:44:14;102637.44;;;0.86;100.00
19236;BME280;9752;54.270;12.470;2023-02-16T07:49:17;102638.50;;;1.01;100.00
19236;BME280;9752;54.270;12.470;2023-02-16T07:54:19;102645.47;;;1.29;100.00
19236;BME280;9752;54.270;12.470;2023-02-16T07:59:21;102657.16;;;1.54;100.00
19236;BME280;9752;54.270;12.470;2023-02-16T08:04:24;102661.84;;;1.71;100.00
19236;BME280;9752;54.270;12.470;2023-02-16T08:09:25;102665.75;;;1.82;100.00
19236;BME280;9752;54.270;12.470;2023-02-16T08:14:27;102664.94;;;2.03;100.00
19236;BME280;9752;54.270;12.470;2023-02-16T08:19:30;102672.94;;;2.41;100.00
19236;BME280;9752;54.270;12.470;2023-02-16T08:24:33;102680.69;;;2.55;100.00
19236;BME280;9752;54.270;12.470;2023-02-16T08:29:35;102682.53;;;2.63;100.00
19236;BME280;9752;54.270;12.470;2023-02-16T08:34:38;102675.66;;;2.91;100.00
19236;BME280;9752;54.270;12.470;2023-02-16T08:39:40;102685.19;;;3.13;100.00
19236;BME280;9752;54.270;12.470;2023-02-16T08:44:42;102674.56;;;3.46;100.00
19236;BME280;9752;54.270;12.470;2023-02-16T08:49:45;102669.75;;;3.71;100.00
19236;BME280;9752;54.270;12.470;2023-02-16T08:54:47;102662.78;;;3.77;100.00
19236;BME280;9752;54.270;12.470;2023-02-16T08:59:49;102661.25;;;4.08;100.00
19236;BME280;9752;54.270;12.470;2023-02-16T09:05:12;102651.34;;;4.41;100.00
19236;BME280;9752;54.270;12.470;2023-02-16T09:10:14;102643.41;;;4.54;100.00
19236;BME280;9752;54.270;12.470;2023-02-16T09:15:16;102645.81;;;4.76;100.00
19236;BME280;9752;54.270;12.470;2023-02-16T09:20:19;102622.41;;;4.88;100.00
19236;BME280;9752;54.270;12.470;2023-02-16T09:25:21;102603.09;;;5.15;100.00
19236;BME280;9752;54.270;12.470;2023-02-16T09:30:24;102593.16;;;5.34;100.00
19236;BME280;9752;54.270;12.470;2023-02-16T09:35:27;102577.69;;;5.73;100.00
19236;BME280;9752;54.270;12.470;2023-02-16T09:40:29;102576.13;;;5.98;100.00
19236;BME280;9752;54.270;12.470;2023-02-16T09:45:31;102560.19;;;6.18;100.00
19236;BME280;9752;54.270;12.470;2023-02-16T09:50:41;102537.41;;;6.55;100.00
19236;BME280;9752;54.270;12.470;2023-02-16T09:55:48;102525.94;;;6.69;100.00
19236;BME280;9752;54.270;12.470;2023-02-16T10:00:58;102482.53;;;7.24;100.00
19236;BME280;9752;54.270;12.470;2023-02-16T10:06:20;102437.59;;;7.57;100.00
19236;BME280;9752;54.270;12.470;2023-02-16T10:11:26;102384.44;;;7.76;100.00
19236;BME280;9752;54.270;12.470;2023-02-16T10:16:44;102351.00;;;7.78;100.00
19236;BME280;9752;54.270;12.470;2023-02-16T10:21:52;102304.19;;;7.03;100.00
19236;BME280;9752;54.270;12.470;2023-02-16T10:27:01;102281.09;;;7.31;100.00
19236;BME280;9752;54.270;12.470;2023-02-16T10:32:12;102257.75;;;7.21;100.00
19236;BME280;9752;54.270;12.470;2023-02-16T10:37:35;102249.53;;;7.25;100.00
19236;BME280;9752;54.270;12.470;2023-02-16T10:42:45;102235.44;;;7.58;100.00
19236;BME280;9752;54.270;12.470;2023-02-16T10:47:51;102208.00;;;7.41;100.00
19236;BME280;9752;54.270;12.470;2023-02-16T10:52:57;102214.31;;;7.17;100.00
19236;BME280;9752;54.270;12.470;2023-02-16T10:58:00;102190.66;;;7.12;100.00
19236;BME280;9752;54.270;12.470;2023-02-16T11:03:02;102188.28;;;6.79;100.00
19236;BME280;9752;54.270;12.470;2023-02-16T11:08:06;102199.03;;;7.01;100.00
19236;BME280;9752;54.270;12.470;2023-02-16T11:13:23;102179.94;;;7.35;100.00
19236;BME280;9752;54.270;12.470;2023-02-16T11:18:32;102175.81;;;7.46;100.00
19236;BME280;9752;54.270;12.470;2023-02-16T11:23:38;102176.63;;;7.64;100.00
19236;BME280;9752;54.270;12.470;2023-02-16T11:28:42;102170.91;;;7.21;100.00
19236;BME280;9752;54.270;12.470;2023-02-16T11:33:54;102162.38;;;7.22;100.00
19236;BME280;9752;54.270;12.470;2023-02-16T11:39:00;102163.00;;;7.56;100.00
19236;BME280;9752;54.270;12.470;2023-02-16T11:44:03;102155.09;;;7.55;100.00
19236;BME280;9752;54.270;12.470;2023-02-16T11:49:28;102149.00;;;7.63;100.00
19236;BME280;9752;54.270;12.470;2023-02-16T11:54:32;102144.78;;;7.27;100.00
19236;BME280;9752;54.270;12.470;2023-02-16T11:59:35;102153.88;;;7.23;100.00
19236;BME280;9752;54.270;12.470;2023-02-16T12:04:49;102163.72;;;7.36;100.00
19236;BME280;9752;54.270;12.470;2023-02-16T12:10:01;102172.44;;;7.11;100.00
19236;BME280;9752;54.270;12.470;2023-02-16T12:15:13;102179.72;;;7.15;100.00
19236;BME280;9752;54.270;12.470;2023-02-16T12:20:29;102163.31;;;7.14;100.00
19236;BME280;9752;54.270;12.470;2023-02-16T12:25:37;102175.31;;;7.59;100.00
19236;BME280;9752;54.270;12.470;2023-02-16T12:30:50;102163.00;;;7.84;100.00
19236;BME280;9752;54.270;12.470;2023-02-16T12:36:05;102154.56;;;7.76;100.00
19236;BME280;9752;54.270;12.470;2023-02-16T12:41:21;102147.31;;;7.63;100.00
19236;BME280;9752;54.270;12.470;2023-02-16T12:46:29;102141.22;;;7.91;100.00
19236;BME280;9752;54.270;12.470;2023-02-16T12:51:36;102135.47;;;7.66;100.00
19236;BME280;9752;54.270;12.470;2023-02-16T12:56:44;102138.88;;;8.02;100.00
19236;BME280;9752;54.270;12.470;2023-02-16T13:01:48;102125.47;;;7.88;100.00
19236;BME280;9752;54.270;12.470;2023-02-16T13:07:05;102120.81;;;7.75;100.00
19236;BME280;9752;54.270;12.470;2023-02-16T13:12:25;102113.50;;;7.24;100.00
19236;BME280;9752;54.270;12.470;2023-02-16T13:17:32;102115.22;;;7.51;100.00
19236;BME280;9752;54.270;12.470;2023-02-16T13:23:00;102122.31;;;7.54;100.00
19236;BME280;9752;54.270;12.470;2023-02-16T13:28:29;102126.31;;;7.69;100.00
19236;BME280;9752;54.270;12.470;2023-02-16T13:33:46;102119.44;;;7.51;100.00
19236;BME280;9752;54.270;12.470;2023-02-16T13:44:24;102104.22;;;8.00;100.00
19236;BME280;9752;54.270;12.470;2023-02-16T13:49:31;102102.56;;;8.01;100.00
19236;BME280;9752;54.270;12.470;2023-02-16T13:54:37;102102.22;;;7.88;100.00
19236;BME280;9752;54.270;12.470;2023-02-16T13:59:56;102101.66;;;7.54;100.00
19236;BME280;9752;54.270;12.470;2023-02-16T14:05:01;102103.09;;;7.41;100.00
19236;BME280;9752;54.270;12.470;2023-02-16T14:10:07;102096.34;;;7.52;100.00
19236;BME280;9752;54.270;12.470;2023-02-16T14:15:19;102093.38;;;7.39;100.00
19236;BME280;9752;54.270;12.470;2023-02-16T14:20:26;102092.72;;;7.50;100.00
19236;BME280;9752;54.270;12.470;2023-02-16T14:25:33;102095.72;;;7.55;100.00
19236;BME280;9752;54.270;12.470;2023-02-16T14:30:44;102096.84;;;7.48;100.00
19236;BME280;9752;54.270;12.470;2023-02-16T14:36:05;102096.09;;;7.68;100.00
19236;BME280;9752;54.270;12.470;2023-02-16T14:41:11;102090.47;;;7.72;100.00
19236;BME280;9752;54.270;12.470;2023-02-16T14:46:27;102090.28;;;7.52;100.00
19236;BME280;9752;54.270;12.470;2023-02-16T14:57:17;102098.19;;;7.53;100.00
19236;BME280;9752;54.270;12.470;2023-02-16T15:02:27;102093.31;;;7.75;100.00
19236;BME280;9752;54.270;12.470;2023-02-16T15:07:30;102085.22;;;7.81;100.00
19236;BME280;9752;54.270;12.470;2023-02-16T15:12:31;102090.59;;;7.93;100.00
19236;BME280;9752;54.270;12.470;2023-02-16T15:17:39;102082.84;;;7.93;100.00
19236;BME280;9752;54.270;12.470;2023-02-16T15:22:47;102082.84;;;7.74;100.00
19236;BME280;9752;54.270;12.470;2023-02-16T15:27:54;102087.28;;;7.66;100.00
19236;BME280;9752;54.270;12.470;2023-02-16T15:33:01;102079.97;;;7.52;100.00
19236;BME280;9752;54.270;12.470;2023-02-16T15:38:06;102085.66;;;7.39;100.00
19236;BME280;9752;54.270;12.470;2023-02-16T15:43:18;102088.72;;;7.35;100.00
19236;BME280;9752;54.270;12.470;2023-02-16T15:48:29;102084.22;;;7.23;100.00
19236;BME280;9752;54.270;12.470;2023-02-16T15:53:35;102087.75;;;7.15;100.00
19236;BME280;9752;54.270;12.470;2023-02-16T15:58:37;102097.03;;;7.13;100.00
19236;BME280;9752;54.270;12.470;2023-02-16T16:03:42;102110.03;;;7.15;100.00
19236;BME280;9752;54.270;12.470;2023-02-16T16:08:46;102108.25;;;7.14;100.00
19236;BME280;9752;54.270;12.470;2023-02-16T16:13:47;102104.00;;;7.06;100.00
19236;BME280;9752;54.270;12.470;2023-02-16T16:18:52;102109.00;;;7.13;100.00
19236;BME280;9752;54.270;12.470;2023-02-16T16:23:59;102106.56;;;7.14;100.00
19236;BME280;9752;54.270;12.470;2023-02-16T16:29:02;102107.47;;;7.15;100.00
19236;BME280;9752;54.270;12.470;2023-02-16T16:34:07;102115.34;;;7.16;100.00
19236;BME280;9752;54.270;12.470;2023-02-16T16:39:19;102104.47;;;7.10;100.00
19236;BME280;9752;54.270;12.470;2023-02-16T16:44:31;102102.44;;;7.16;100.00
19236;BME280;9752;54.270;12.470;2023-02-16T16:49:35;102097.13;;;7.15;100.00
19236;BME280;9752;54.270;12.470;2023-02-16T16:54:36;102093.03;;;7.17;100.00
19236;BME280;9752;54.270;12.470;2023-02-16T16:59:39;102094.78;;;7.08;100.00
19236;BME280;9752;54.270;12.470;2023-02-16T17:04:43;102099.31;;;7.01;100.00
19236;BME280;9752;54.270;12.470;2023-02-16T17:09:44;102096.31;;;6.97;100.00
19236;BME280;9752;54.270;12.470;2023-02-16T17:14:46;102110.91;;;6.88;100.00
19236;BME280;9752;54.270;12.470;2023-02-16T17:19:49;102105.13;;;6.90;100.00
19236;BME280;9752;54.270;12.470;2023-02-16T17:24:51;102118.22;;;6.83;100.00
19236;BME280;9752;54.270;12.470;2023-02-16T17:29:52;102132.13;;;6.94;100.00
19236;BME280;9752;54.270;12.470;2023-02-16T17:34:55;102130.44;;;6.94;100.00
19236;BME280;9752;54.270;12.470;2023-02-16T17:39:57;102133.50;;;6.90;100.00
19236;BME280;9752;54.270;12.470;2023-02-16T17:44:59;102124.88;;;6.81;100.00
19236;BME280;9752;54.270;12.470;2023-02-16T17:50:03;102129.91;;;6.71;100.00
19236;BME280;9752;54.270;12.470;2023-02-16T17:55:06;102122.47;;;6.74;100.00
19236;BME280;9752;54.270;12.470;2023-02-16T18:00:12;102139.44;;;6.89;100.00
19236;BME280;9752;54.270;12.470;2023-02-16T18:05:18;102138.66;;;6.90;100.00
19236;BME280;9752;54.270;12.470;2023-02-16T18:10:31;102148.53;;;6.86;100.00
19236;BME280;9752;54.270;12.470;2023-02-16T18:15:34;102148.69;;;6.87;100.00
19236;BME280;9752;54.270;12.470;2023-02-16T18:20:37;102144.59;;;6.80;100.00
19236;BME280;9752;54.270;12.470;2023-02-16T18:25:39;102144.88;;;6.92;100.00
19236;BME280;9752;54.270;12.470;2023-02-16T18:30:43;102147.44;;;7.01;100.00
19236;BME280;9752;54.270;12.470;2023-02-16T18:35:46;102156.38;;;6.96;100.00
19236;BME280;9752;54.270;12.470;2023-02-16T18:40:50;102170.97;;;6.95;100.00
19236;BME280;9752;54.270;12.470;2023-02-16T18:45:52;102173.22;;;6.92;100.00
19236;BME280;9752;54.270;12.470;2023-02-16T18:50:55;102174.00;;;6.91;100.00
19236;BME280;9752;54.270;12.470;2023-02-16T18:55:57;102180.06;;;6.92;100.00
19236;BME280;9752;54.270;12.470;2023-02-16T19:00:59;102175.50;;;6.98;100.00
19236;BME280;9752;54.270;12.470;2023-02-16T19:06:02;102179.44;;;6.94;100.00
19236;BME280;9752;54.270;12.470;2023-02-16T19:11:04;102184.59;;;6.94;100.00
19236;BME280;9752;54.270;12.470;2023-02-16T19:16:06;102190.84;;;6.96;100.00
19236;BME280;9752;54.270;12.470;2023-02-16T19:21:10;102194.75;;;7.01;100.00
19236;BME280;9752;54.270;12.470;2023-02-16T19:26:14;102183.13;;;6.96;100.00
19236;BME280;9752;54.270;12.470;2023-02-16T19:31:20;102191.91;;;6.98;100.00
19236;BME280;9752;54.270;12.470;2023-02-16T19:36:24;102187.66;;;6.99;100.00
19236;BME280;9752;54.270;12.470;2023-02-16T19:41:28;102196.13;;;7.07;100.00
19236;BME280;9752;54.270;12.470;2023-02-16T19:46:31;102193.09;;;7.11;100.00
19236;BME280;9752;54.270;12.470;2023-02-16T19:51:36;102192.91;;;7.18;100.00
19236;BME280;9752;54.270;12.470;2023-02-16T19:56:37;102191.28;;;7.10;100.00
19236;BME280;9752;54.270;12.470;2023-02-16T20:01:39;102186.72;;;7.07;100.00
19236;BME280;9752;54.270;12.470;2023-02-16T20:06:43;102188.53;;;7.08;100.00
19236;BME280;9752;54.270;12.470;2023-02-16T20:11:45;102189.59;;;7.10;100.00
19236;BME280;9752;54.270;12.470;2023-02-16T20:16:47;102188.69;;;7.10;100.00
19236;BME280;9752;54.270;12.470;2023-02-16T20:21:52;102181.53;;;7.16;100.00
19236;BME280;9752;54.270;12.470;2023-02-16T20:26:54;102173.97;;;7.09;100.00
19236;BME280;9752;54.270;12.470;2023-02-16T20:31:56;102179.88;;;7.16;100.00
19236;BME280;9752;54.270;12.470;2023-02-16T20:36:59;102172.16;;;7.08;100.00
19236;BME280;9752;54.270;12.470;2023-02-16T20:42:01;102177.13;;;7.15;100.00
19236;BME280;9752;54.270;12.470;2023-02-16T20:47:03;102176.69;;;7.10;100.00
19236;BME280;9752;54.270;12.470;2023-02-16T20:52:08;102170.03;;;7.03;100.00
19236;BME280;9752;54.270;12.470;2023-02-16T20:57:09;102163.22;;;6.95;100.00
19236;BME280;9752;54.270;12.470;2023-02-16T21:02:11;102141.28;;;6.81;100.00
19236;BME280;9752;54.270;12.470;2023-02-16T21:07:14;102142.78;;;6.71;100.00
19236;BME280;9752;54.270;12.470;2023-02-16T21:12:16;102137.34;;;6.50;100.00
19236;BME280;9752;54.270;12.470;2023-02-16T21:17:18;102139.94;;;6.50;100.00
19236;BME280;9752;54.270;12.470;2023-02-16T21:22:21;102142.81;;;6.53;100.00
19236;BME280;9752;54.270;12.470;2023-02-16T21:27:24;102149.66;;;6.53;100.00
19236;BME280;9752;54.270;12.470;2023-02-16T21:32:25;102156.94;;;6.57;100.00
19236;BME280;9752;54.270;12.470;2023-02-16T21:37:28;102151.00;;;6.58;100.00
19236;BME280;9752;54.270;12.470;2023-02-16T21:42:31;102161.47;;;6.59;100.00
19236;BME280;9752;54.270;12.470;2023-02-16T21:47:33;102158.41;;;6.63;100.00
19236;BME280;9752;54.270;12.470;2023-02-16T21:52:54;102150.41;;;6.60;100.00
19236;BME280;9752;54.270;12.470;2023-02-16T21:57:56;102145.25;;;6.52;100.00
19236;BME280;9752;54.270;12.470;2023-02-16T22:02:58;102145.09;;;6.33;100.00
19236;BME280;9752;54.270;12.470;2023-02-16T22:08:01;102145.56;;;6.29;100.00
19236;BME280;9752;54.270;12.470;2023-02-16T22:13:04;102159.34;;;6.29;100.00
19236;BME280;9752;54.270;12.470;2023-02-16T22:18:06;102160.13;;;6.28;100.00
19236;BME280;9752;54.270;12.470;2023-02-16T22:23:09;102158.28;;;6.27;100.00
19236;BME280;9752;54.270;12.470;2023-02-16T22:28:11;102144.94;;;6.31;100.00
19236;BME280;9752;54.270;12.470;2023-02-16T22:33:13;102143.16;;;6.30;100.00
19236;BME280;9752;54.270;12.470;2023-02-16T22:38:16;102143.28;;;6.32;100.00
19236;BME280;9752;54.270;12.470;2023-02-16T22:43:18;102120.72;;;6.12;100.00
19236;BME280;9752;54.270;12.470;2023-02-16T22:48:20;102116.16;;;6.09;100.00
19236;BME280;9752;54.270;12.470;2023-02-16T22:53:23;102120.88;;;6.13;100.00
19236;BME280;9752;54.270;12.470;2023-02-16T22:58:25;102119.63;;;6.18;100.00
19236;BME280;9752;54.270;12.470;2023-02-16T23:03:27;102127.34;;;6.18;100.00
19236;BME280;9752;54.270;12.470;2023-02-16T23:08:30;102124.34;;;6.22;100.00
19236;BME280;9752;54.270;12.470;2023-02-16T23:13:33;102128.16;;;6.26;100.00
19236;BME280;9752;54.270;12.470;2023-02-16T23:18:35;102126.47;;;6.27;100.00
19236;BME280;9752;54.270;12.470;2023-02-16T23:23:39;102123.13;;;6.28;100.00
19236;BME280;9752;54.270;12.470;2023-02-16T23:28:42;102107.22;;;6.23;100.00
19236;BME280;9752;54.270;12.470;2023-02-16T23:33:44;102105.84;;;6.27;100.00
19236;BME280;9752;54.270;12.470;2023-02-16T23:38:47;102103.28;;;6.27;100.00
19236;BME280;9752;54.270;12.470;2023-02-16T23:43:49;102091.63;;;6.30;100.00
19236;BME280;9752;54.270;12.470;2023-02-16T23:48:50;102090.69;;;6.30;100.00
19236;BME280;9752;54.270;12.470;2023-02-16T23:53:53;102091.47;;;6.29;100.00
19236;BME280;9752;54.270;12.470;2023-02-16T23:58:57;102067.06;;;6.25;100.00
